Balıkesir, Türkiye

Saat: 03:09 PM EET Tarih: 28 Kasım 2014 (GMT +0200)
Balikesir Air Base | Change Station
CLOSE
Current Station
Hava Meydanı
Location: Balikesir,
Yükseklik: 335 ft
Nearby Weather Stations

Elev 335 ft 39.62 °N, 27.93 °E | Updated 19 minutes ago

Clear
Açık
48
Feels Like 48
N
0
Rüzgar Değişken Rüzgar from Kuzey

Bugün
High -- | Low -- F°
--% Chance of Precip.
Dün
High -- | Low -- F°
Precip. -- inç
7:06 AM 4:45 PM
Hilal, 40% visible
Basınç 30.24 inç
Görüş Uzaklığı -9999.0 mil
Bulutlar
Çiğ noktası 37
Nem oranı 66%
Yağış 0.00 inç
Kar Kalınlığı Not available.
Not available.
Pollen Not available.
Hava Kalitesi Not available.
Flu Activity Not available.
METAR LTBF 281250Z 00000KT CAVOK 09/03 Q1024 NOSIG

More Conditions Fewer Conditions

Basınç 30.24 inç
Görüş Uzaklığı -9999.0 mil
Bulutlar
Çiğ noktası 37
Nem oranı 66%
Yağış 0.00 inç
Kar Kalınlığı Not available.
Not available.
Pollen Not available.
Hava Kalitesi Not available.
Flu Activity Not available.
METAR LTBF 281250Z 00000KT CAVOK 09/03 Q1024 NOSIG

More Conditions Fewer Conditions

10-Day Weather Forecast

Almanac

Gökbilim

Nov. 28, 2014 Rise Set
Gerçek Zaman
Günlük Tan
Deniz Tanı
Geceyarısı Yıldız Zamanı
Ay
Görünür Işığın Uzunluğu
Günün Uzunluğu
Tomorrow will be .
, % of the Moon is Illuminated

Günün En Yüksekleri

Country Highs Country Lows

Community

WunderPhotos

Upload Photos

1,774,199 photos uploaded!

WunderBlogs® & News

Nearby

Hava Kalitesi

  Hava Kalitesi Hava Kalitesi Endeksi Kirletici
Not available.

Kar Kalınlığı

Station Depth Yükseklik

Earthquake Activity

Şehir Distance Mag. Time & Date
Minimum magnitude displayed is 2.5.

Coastal Water Temperatures

Yer Sıcaklık

Nearby Weather Stations